Del Norte, Colorado
Current Conditions -  °F | °C
As of 8:50 AM on Thursday 30 Oct 2014 (Local Time) from KRCV Reporting Station
Clear Clear  
Wind Chill: 32°   Ceiling: Unl
Heat Index: 40°   Visibility: 10mi
Dew Point: 15°   Wind: 14mph
Humidity: 36%   Direction: 260°W
Pressure: 30.44"   Gusts: NA
Location:  37.68°N, 106.35°W
Report Text: KRCV 301450Z AUTO 26012KT 10SM CLR 05/M09 A3044 RMK AO2 T00451094
Loading
Personal Weather Stations






























Interactive Weather Map
Tropical Storm Tracking
New forecast layout! Learn more

10-Day Weather Forecast

Advertisements
Track Severe Weather on mobile